sensor_id;sensor_type;location;lat;lon;timestamp;temperature;humidity
22714;DHT22;11524;50.846;4.326;2022-11-15T00:01:44;18.80;62.50
22714;DHT22;11524;50.846;4.326;2022-11-15T00:04:10;18.80;62.60
22714;DHT22;11524;50.846;4.326;2022-11-15T00:06:36;18.80;62.40
22714;DHT22;11524;50.846;4.326;2022-11-15T00:09:02;18.90;62.70
22714;DHT22;11524;50.846;4.326;2022-11-15T00:11:27;18.90;62.60
22714;DHT22;11524;50.846;4.326;2022-11-15T00:13:57;18.90;62.80
22714;DHT22;11524;50.846;4.326;2022-11-15T00:16:23;18.90;62.30
22714;DHT22;11524;50.846;4.326;2022-11-15T00:18:50;18.90;62.50
22714;DHT22;11524;50.846;4.326;2022-11-15T00:21:16;18.90;62.80
22714;DHT22;11524;50.846;4.326;2022-11-15T00:23:41;18.90;63.30
22714;DHT22;11524;50.846;4.326;2022-11-15T00:26:13;19.00;62.50
22714;DHT22;11524;50.846;4.326;2022-11-15T00:28:40;18.90;62.60
22714;DHT22;11524;50.846;4.326;2022-11-15T00:31:08;18.90;62.80
22714;DHT22;11524;50.846;4.326;2022-11-15T00:33:34;18.90;62.60
22714;DHT22;11524;50.846;4.326;2022-11-15T00:36:04;18.90;62.70
22714;DHT22;11524;50.846;4.326;2022-11-15T00:38:34;18.90;63.10
22714;DHT22;11524;50.846;4.326;2022-11-15T00:41:00;18.90;63.20
22714;DHT22;11524;50.846;4.326;2022-11-15T00:43:26;18.90;63.10
22714;DHT22;11524;50.846;4.326;2022-11-15T00:45:52;18.90;63.00
22714;DHT22;11524;50.846;4.326;2022-11-15T00:48:18;18.90;63.20
22714;DHT22;11524;50.846;4.326;2022-11-15T00:50:43;18.90;63.20
22714;DHT22;11524;50.846;4.326;2022-11-15T00:53:09;19.00;63.30
22714;DHT22;11524;50.846;4.326;2022-11-15T00:55:34;18.90;63.70
22714;DHT22;11524;50.846;4.326;2022-11-15T00:58:00;18.90;63.20
22714;DHT22;11524;50.846;4.326;2022-11-15T01:00:25;19.00;63.60
22714;DHT22;11524;50.846;4.326;2022-11-15T01:02:51;19.00;63.70
22714;DHT22;11524;50.846;4.326;2022-11-15T01:05:17;19.00;63.90
22714;DHT22;11524;50.846;4.326;2022-11-15T01:07:42;19.00;63.80
22714;DHT22;11524;50.846;4.326;2022-11-15T01:10:08;19.10;63.90
22714;DHT22;11524;50.846;4.326;2022-11-15T01:12:34;19.10;64.10
22714;DHT22;11524;50.846;4.326;2022-11-15T01:14:59;19.00;63.90
22714;DHT22;11524;50.846;4.326;2022-11-15T01:17:25;19.10;64.00
22714;DHT22;11524;50.846;4.326;2022-11-15T01:19:51;19.00;64.20
22714;DHT22;11524;50.846;4.326;2022-11-15T01:22:16;19.00;64.10
22714;DHT22;11524;50.846;4.326;2022-11-15T01:24:42;19.10;63.70
22714;DHT22;11524;50.846;4.326;2022-11-15T01:27:08;19.10;63.70
22714;DHT22;11524;50.846;4.326;2022-11-15T01:29:34;19.10;63.60
22714;DHT22;11524;50.846;4.326;2022-11-15T01:31:59;19.10;63.50
22714;DHT22;11524;50.846;4.326;2022-11-15T01:34:25;19.10;63.50
22714;DHT22;11524;50.846;4.326;2022-11-15T01:36:51;19.10;63.50
22714;DHT22;11524;50.846;4.326;2022-11-15T01:39:16;19.10;63.60
22714;DHT22;11524;50.846;4.326;2022-11-15T01:41:42;19.20;63.40
22714;DHT22;11524;50.846;4.326;2022-11-15T01:44:38;19.10;63.40
22714;DHT22;11524;50.846;4.326;2022-11-15T01:47:15;19.10;63.30
22714;DHT22;11524;50.846;4.326;2022-11-15T01:49:49;19.10;63.10
22714;DHT22;11524;50.846;4.326;2022-11-15T01:52:19;19.10;63.00
22714;DHT22;11524;50.846;4.326;2022-11-15T01:54:47;19.20;63.20
22714;DHT22;11524;50.846;4.326;2022-11-15T01:57:13;19.10;63.40
22714;DHT22;11524;50.846;4.326;2022-11-15T01:59:41;19.20;63.20
22714;DHT22;11524;50.846;4.326;2022-11-15T02:02:08;19.20;63.30
22714;DHT22;11524;50.846;4.326;2022-11-15T02:04:39;19.10;59.90
22714;DHT22;11524;50.846;4.326;2022-11-15T02:07:07;19.10;59.80
22714;DHT22;11524;50.846;4.326;2022-11-15T02:09:36;19.10;59.70
22714;DHT22;11524;50.846;4.326;2022-11-15T02:12:02;19.10;59.80
22714;DHT22;11524;50.846;4.326;2022-11-15T02:14:28;19.10;60.50
22714;DHT22;11524;50.846;4.326;2022-11-15T02:17:17;19.10;60.40
22714;DHT22;11524;50.846;4.326;2022-11-15T02:29:03;19.00;60.60
22714;DHT22;11524;50.846;4.326;2022-11-15T02:32:00;19.00;60.80
22714;DHT22;11524;50.846;4.326;2022-11-15T02:34:44;19.00;61.00
22714;DHT22;11524;50.846;4.326;2022-11-15T02:40:05;19.00;61.20
22714;DHT22;11524;50.846;4.326;2022-11-15T02:42:49;19.00;61.00
22714;DHT22;11524;50.846;4.326;2022-11-15T02:45:38;19.00;60.90
22714;DHT22;11524;50.846;4.326;2022-11-15T02:48:06;19.00;61.00
22714;DHT22;11524;50.846;4.326;2022-11-15T02:50:32;19.00;61.10
22714;DHT22;11524;50.846;4.326;2022-11-15T02:52:59;19.00;61.20
22714;DHT22;11524;50.846;4.326;2022-11-15T03:00:34;19.00;61.10
22714;DHT22;11524;50.846;4.326;2022-11-15T03:03:15;19.00;61.10
22714;DHT22;11524;50.846;4.326;2022-11-15T03:09:03;19.10;61.20
22714;DHT22;11524;50.846;4.326;2022-11-15T03:11:29;19.00;61.80
22714;DHT22;11524;50.846;4.326;2022-11-15T03:22:11;19.00;61.30
22714;DHT22;11524;50.846;4.326;2022-11-15T03:24:38;19.00;61.50
22714;DHT22;11524;50.846;4.326;2022-11-15T03:27:06;19.00;61.30
22714;DHT22;11524;50.846;4.326;2022-11-15T03:29:36;19.00;61.50
22714;DHT22;11524;50.846;4.326;2022-11-15T03:32:11;19.00;61.20
22714;DHT22;11524;50.846;4.326;2022-11-15T03:34:51;19.10;61.10
22714;DHT22;11524;50.846;4.326;2022-11-15T03:37:21;19.00;61.00
22714;DHT22;11524;50.846;4.326;2022-11-15T03:39:48;19.10;61.40
22714;DHT22;11524;50.846;4.326;2022-11-15T03:42:27;19.00;61.00
22714;DHT22;11524;50.846;4.326;2022-11-15T03:47:44;19.00;61.00
22714;DHT22;11524;50.846;4.326;2022-11-15T03:50:13;19.00;61.00
22714;DHT22;11524;50.846;4.326;2022-11-15T03:52:41;19.00;61.00
22714;DHT22;11524;50.846;4.326;2022-11-15T03:55:10;19.00;61.00
22714;DHT22;11524;50.846;4.326;2022-11-15T03:57:36;19.00;61.30
22714;DHT22;11524;50.846;4.326;2022-11-15T04:00:04;19.00;61.30
22714;DHT22;11524;50.846;4.326;2022-11-15T04:02:29;19.00;61.20
22714;DHT22;11524;50.846;4.326;2022-11-15T04:04:55;19.00;61.10
22714;DHT22;11524;50.846;4.326;2022-11-15T04:07:21;19.00;61.20
22714;DHT22;11524;50.846;4.326;2022-11-15T04:09:46;19.00;61.30
22714;DHT22;11524;50.846;4.326;2022-11-15T04:12:28;19.00;61.30
22714;DHT22;11524;50.846;4.326;2022-11-15T04:15:08;19.00;61.10
22714;DHT22;11524;50.846;4.326;2022-11-15T04:17:47;19.00;60.90
22714;DHT22;11524;50.846;4.326;2022-11-15T04:23:12;19.00;61.00
22714;DHT22;11524;50.846;4.326;2022-11-15T04:25:59;19.00;60.70
22714;DHT22;11524;50.846;4.326;2022-11-15T04:28:26;19.00;61.70
22714;DHT22;11524;50.846;4.326;2022-11-15T04:30:52;19.10;61.10
22714;DHT22;11524;50.846;4.326;2022-11-15T04:33:17;19.00;60.80
22714;DHT22;11524;50.846;4.326;2022-11-15T04:35:43;19.00;60.60
22714;DHT22;11524;50.846;4.326;2022-11-15T04:38:10;18.90;61.00
22714;DHT22;11524;50.846;4.326;2022-11-15T04:40:37;18.90;60.60
22714;DHT22;11524;50.846;4.326;2022-11-15T04:43:03;19.00;60.80
22714;DHT22;11524;50.846;4.326;2022-11-15T04:45:29;19.00;60.90
22714;DHT22;11524;50.846;4.326;2022-11-15T04:47:55;19.00;60.60
22714;DHT22;11524;50.846;4.326;2022-11-15T04:50:20;19.00;60.30
22714;DHT22;11524;50.846;4.326;2022-11-15T04:52:53;18.90;60.10
22714;DHT22;11524;50.846;4.326;2022-11-15T04:55:19;19.00;60.00
22714;DHT22;11524;50.846;4.326;2022-11-15T04:57:45;18.90;60.10
22714;DHT22;11524;50.846;4.326;2022-11-15T05:00:13;19.00;60.90
22714;DHT22;11524;50.846;4.326;2022-11-15T05:02:40;18.90;60.00
22714;DHT22;11524;50.846;4.326;2022-11-15T05:05:25;18.90;60.00
22714;DHT22;11524;50.846;4.326;2022-11-15T05:07:50;18.90;60.80
22714;DHT22;11524;50.846;4.326;2022-11-15T05:10:16;18.90;60.00
22714;DHT22;11524;50.846;4.326;2022-11-15T05:12:42;18.90;60.00
22714;DHT22;11524;50.846;4.326;2022-11-15T05:15:08;18.90;59.90
22714;DHT22;11524;50.846;4.326;2022-11-15T05:17:33;18.90;60.00
22714;DHT22;11524;50.846;4.326;2022-11-15T05:19:59;18.90;60.00
22714;DHT22;11524;50.846;4.326;2022-11-15T05:22:25;18.90;60.00
22714;DHT22;11524;50.846;4.326;2022-11-15T05:24:51;18.90;60.00
22714;DHT22;11524;50.846;4.326;2022-11-15T05:27:17;18.90;59.70
22714;DHT22;11524;50.846;4.326;2022-11-15T05:29:43;18.90;60.00
22714;DHT22;11524;50.846;4.326;2022-11-15T05:32:09;18.90;59.70
22714;DHT22;11524;50.846;4.326;2022-11-15T05:34:35;18.90;59.70
22714;DHT22;11524;50.846;4.326;2022-11-15T05:37:01;18.90;59.60
22714;DHT22;11524;50.846;4.326;2022-11-15T05:39:26;18.90;59.70
22714;DHT22;11524;50.846;4.326;2022-11-15T05:41:56;18.90;59.70
22714;DHT22;11524;50.846;4.326;2022-11-15T05:44:23;18.90;59.50
22714;DHT22;11524;50.846;4.326;2022-11-15T05:46:50;18.90;59.80
22714;DHT22;11524;50.846;4.326;2022-11-15T05:49:20;18.90;59.90
22714;DHT22;11524;50.846;4.326;2022-11-15T05:51:48;18.90;60.00
22714;DHT22;11524;50.846;4.326;2022-11-15T05:54:16;18.90;60.00
22714;DHT22;11524;50.846;4.326;2022-11-15T05:56:43;18.90;59.90
22714;DHT22;11524;50.846;4.326;2022-11-15T05:59:09;18.90;60.00
22714;DHT22;11524;50.846;4.326;2022-11-15T06:01:36;18.90;59.70
22714;DHT22;11524;50.846;4.326;2022-11-15T06:04:01;18.90;60.00
22714;DHT22;11524;50.846;4.326;2022-11-15T06:06:28;18.90;60.00
22714;DHT22;11524;50.846;4.326;2022-11-15T06:08:53;18.90;60.00
22714;DHT22;11524;50.846;4.326;2022-11-15T06:11:19;18.90;60.10
22714;DHT22;11524;50.846;4.326;2022-11-15T06:13:45;18.90;60.10
22714;DHT22;11524;50.846;4.326;2022-11-15T06:16:10;18.90;60.00
22714;DHT22;11524;50.846;4.326;2022-11-15T06:18:37;18.90;59.80
22714;DHT22;11524;50.846;4.326;2022-11-15T06:21:03;18.90;60.00
22714;DHT22;11524;50.846;4.326;2022-11-15T06:23:31;18.90;60.10
22714;DHT22;11524;50.846;4.326;2022-11-15T06:25:58;18.80;60.00
22714;DHT22;11524;50.846;4.326;2022-11-15T06:28:24;18.80;59.80
22714;DHT22;11524;50.846;4.326;2022-11-15T06:30:53;18.80;60.30
22714;DHT22;11524;50.846;4.326;2022-11-15T06:33:18;18.80;60.10
22714;DHT22;11524;50.846;4.326;2022-11-15T06:35:44;18.80;60.30
22714;DHT22;11524;50.846;4.326;2022-11-15T06:38:10;18.80;59.80
22714;DHT22;11524;50.846;4.326;2022-11-15T06:40:37;18.80;59.50
22714;DHT22;11524;50.846;4.326;2022-11-15T06:43:03;18.80;59.40
22714;DHT22;11524;50.846;4.326;2022-11-15T06:45:30;18.80;59.30
22714;DHT22;11524;50.846;4.326;2022-11-15T06:47:56;18.80;59.00
22714;DHT22;11524;50.846;4.326;2022-11-15T06:50:21;18.80;59.10
22714;DHT22;11524;50.846;4.326;2022-11-15T06:52:47;18.80;59.10
22714;DHT22;11524;50.846;4.326;2022-11-15T06:55:12;18.80;58.90
22714;DHT22;11524;50.846;4.326;2022-11-15T06:57:49;18.80;58.70
22714;DHT22;11524;50.846;4.326;2022-11-15T07:00:16;18.80;58.60
22714;DHT22;11524;50.846;4.326;2022-11-15T07:02:42;18.80;58.80
22714;DHT22;11524;50.846;4.326;2022-11-15T07:05:08;18.70;59.00
22714;DHT22;11524;50.846;4.326;2022-11-15T07:07:33;18.80;59.10
22714;DHT22;11524;50.846;4.326;2022-11-15T07:09:59;18.80;59.40
22714;DHT22;11524;50.846;4.326;2022-11-15T07:12:24;18.80;60.90
22714;DHT22;11524;50.846;4.326;2022-11-15T07:14:50;18.80;64.00
22714;DHT22;11524;50.846;4.326;2022-11-15T07:17:16;18.90;63.40
22714;DHT22;11524;50.846;4.326;2022-11-15T07:19:41;18.90;63.20
22714;DHT22;11524;50.846;4.326;2022-11-15T07:22:07;19.00;59.00
22714;DHT22;11524;50.846;4.326;2022-11-15T07:24:32;18.90;58.70
22714;DHT22;11524;50.846;4.326;2022-11-15T07:26:58;18.90;58.20
22714;DHT22;11524;50.846;4.326;2022-11-15T07:29:23;19.00;57.60
22714;DHT22;11524;50.846;4.326;2022-11-15T07:31:49;19.10;57.20
22714;DHT22;11524;50.846;4.326;2022-11-15T07:34:15;19.20;56.70
22714;DHT22;11524;50.846;4.326;2022-11-15T07:36:41;19.30;56.40
22714;DHT22;11524;50.846;4.326;2022-11-15T07:39:07;19.40;56.30
22714;DHT22;11524;50.846;4.326;2022-11-15T07:41:32;19.00;56.30
22714;DHT22;11524;50.846;4.326;2022-11-15T07:43:58;17.80;57.70
22714;DHT22;11524;50.846;4.326;2022-11-15T07:46:24;17.00;60.30
22714;DHT22;11524;50.846;4.326;2022-11-15T07:48:49;16.50;61.80
22714;DHT22;11524;50.846;4.326;2022-11-15T07:51:16;16.30;63.80
22714;DHT22;11524;50.846;4.326;2022-11-15T07:53:43;16.10;63.30
22714;DHT22;11524;50.846;4.326;2022-11-15T07:56:09;15.90;64.40
22714;DHT22;11524;50.846;4.326;2022-11-15T07:58:35;16.20;65.90
22714;DHT22;11524;50.846;4.326;2022-11-15T08:01:05;16.70;64.50
22714;DHT22;11524;50.846;4.326;2022-11-15T08:03:31;17.10;63.30
22714;DHT22;11524;50.846;4.326;2022-11-15T08:05:57;17.40;62.20
22714;DHT22;11524;50.846;4.326;2022-11-15T08:08:23;17.70;61.30
22714;DHT22;11524;50.846;4.326;2022-11-15T08:10:49;17.90;60.60
22714;DHT22;11524;50.846;4.326;2022-11-15T08:13:14;18.10;60.90
22714;DHT22;11524;50.846;4.326;2022-11-15T08:15:40;18.20;59.70
22714;DHT22;11524;50.846;4.326;2022-11-15T08:18:13;18.30;59.90
22714;DHT22;11524;50.846;4.326;2022-11-15T08:20:39;18.50;59.40
22714;DHT22;11524;50.846;4.326;2022-11-15T08:23:06;18.60;58.80
22714;DHT22;11524;50.846;4.326;2022-11-15T08:25:33;18.70;58.10
22714;DHT22;11524;50.846;4.326;2022-11-15T08:28:02;18.80;57.80
22714;DHT22;11524;50.846;4.326;2022-11-15T08:30:28;18.90;57.90
22714;DHT22;11524;50.846;4.326;2022-11-15T08:32:56;19.00;57.70
22714;DHT22;11524;50.846;4.326;2022-11-15T08:35:23;19.00;57.70
22714;DHT22;11524;50.846;4.326;2022-11-15T08:37:49;19.20;57.30
22714;DHT22;11524;50.846;4.326;2022-11-15T08:40:15;19.20;57.30
22714;DHT22;11524;50.846;4.326;2022-11-15T08:42:41;19.20;57.90
22714;DHT22;11524;50.846;4.326;2022-11-15T08:45:07;19.30;57.50
22714;DHT22;11524;50.846;4.326;2022-11-15T08:47:34;19.30;57.20
22714;DHT22;11524;50.846;4.326;2022-11-15T08:50:00;19.30;56.50
22714;DHT22;11524;50.846;4.326;2022-11-15T08:52:25;19.40;56.80
22714;DHT22;11524;50.846;4.326;2022-11-15T08:54:51;19.40;56.10
22714;DHT22;11524;50.846;4.326;2022-11-15T08:57:17;19.50;56.00
22714;DHT22;11524;50.846;4.326;2022-11-15T08:59:42;19.50;55.80
22714;DHT22;11524;50.846;4.326;2022-11-15T09:02:14;19.50;55.50
22714;DHT22;11524;50.846;4.326;2022-11-15T09:04:41;19.50;55.60
22714;DHT22;11524;50.846;4.326;2022-11-15T09:07:08;19.50;55.70
22714;DHT22;11524;50.846;4.326;2022-11-15T09:09:34;19.60;55.50
22714;DHT22;11524;50.846;4.326;2022-11-15T09:11:59;19.60;56.20
22714;DHT22;11524;50.846;4.326;2022-11-15T09:14:25;19.50;56.50
22714;DHT22;11524;50.846;4.326;2022-11-15T09:16:50;19.40;57.30
22714;DHT22;11524;50.846;4.326;2022-11-15T09:19:16;19.20;58.10
22714;DHT22;11524;50.846;4.326;2022-11-15T09:21:41;19.20;57.80
22714;DHT22;11524;50.846;4.326;2022-11-15T09:24:07;19.20;57.50
22714;DHT22;11524;50.846;4.326;2022-11-15T09:26:33;19.20;56.80
22714;DHT22;11524;50.846;4.326;2022-11-15T09:28:59;19.40;56.70
22714;DHT22;11524;50.846;4.326;2022-11-15T09:31:26;19.50;55.70
22714;DHT22;11524;50.846;4.326;2022-11-15T09:33:52;19.60;55.60
22714;DHT22;11524;50.846;4.326;2022-11-15T09:36:17;19.60;55.30
22714;DHT22;11524;50.846;4.326;2022-11-15T09:38:43;19.60;55.20
22714;DHT22;11524;50.846;4.326;2022-11-15T09:46:43;19.70;54.50
22714;DHT22;11524;50.846;4.326;2022-11-15T09:49:13;19.70;54.60
22714;DHT22;11524;50.846;4.326;2022-11-15T09:51:41;19.70;54.80
22714;DHT22;11524;50.846;4.326;2022-11-15T09:54:29;19.70;54.70
22714;DHT22;11524;50.846;4.326;2022-11-15T09:57:13;19.70;55.20
22714;DHT22;11524;50.846;4.326;2022-11-15T10:05:21;19.80;54.20
22714;DHT22;11524;50.846;4.326;2022-11-15T10:10:39;19.80;54.00
22714;DHT22;11524;50.846;4.326;2022-11-15T10:13:14;19.80;54.10
22714;DHT22;11524;50.846;4.326;2022-11-15T10:15:43;19.80;53.60
22714;DHT22;11524;50.846;4.326;2022-11-15T10:18:34;19.90;54.10
22714;DHT22;11524;50.846;4.326;2022-11-15T10:21:12;19.80;54.00
22714;DHT22;11524;50.846;4.326;2022-11-15T10:23:40;19.80;53.80
22714;DHT22;11524;50.846;4.326;2022-11-15T10:26:10;19.80;53.70
22714;DHT22;11524;50.846;4.326;2022-11-15T10:28:36;19.80;53.80
22714;DHT22;11524;50.846;4.326;2022-11-15T10:31:02;19.90;53.70
22714;DHT22;11524;50.846;4.326;2022-11-15T10:33:38;20.00;53.60
22714;DHT22;11524;50.846;4.326;2022-11-15T10:36:17;19.90;53.60
22714;DHT22;11524;50.846;4.326;2022-11-15T10:41:21;19.90;53.00
22714;DHT22;11524;50.846;4.326;2022-11-15T10:46:42;19.90;52.70
22714;DHT22;11524;50.846;4.326;2022-11-15T10:49:15;20.00;53.20
22714;DHT22;11524;50.846;4.326;2022-11-15T10:51:49;19.90;52.80
22714;DHT22;11524;50.846;4.326;2022-11-15T10:54:29;20.00;53.10
22714;DHT22;11524;50.846;4.326;2022-11-15T10:56:58;20.00;53.20
22714;DHT22;11524;50.846;4.326;2022-11-15T10:59:28;20.00;53.20
22714;DHT22;11524;50.846;4.326;2022-11-15T11:01:55;20.00;53.20
22714;DHT22;11524;50.846;4.326;2022-11-15T11:04:20;20.00;53.10
22714;DHT22;11524;50.846;4.326;2022-11-15T11:11:55;20.00;52.70
22714;DHT22;11524;50.846;4.326;2022-11-15T11:14:25;20.00;52.80
22714;DHT22;11524;50.846;4.326;2022-11-15T11:19:55;20.10;52.90
22714;DHT22;11524;50.846;4.326;2022-11-15T11:25:34;20.10;52.70
22714;DHT22;11524;50.846;4.326;2022-11-15T11:31:25;20.10;52.80
22714;DHT22;11524;50.846;4.326;2022-11-15T11:34:01;20.10;52.50
22714;DHT22;11524;50.846;4.326;2022-11-15T11:42:18;20.10;52.30
22714;DHT22;11524;50.846;4.326;2022-11-15T11:45:00;20.20;52.40
22714;DHT22;11524;50.846;4.326;2022-11-15T11:47:32;20.10;52.50
22714;DHT22;11524;50.846;4.326;2022-11-15T11:50:10;20.20;52.70
22714;DHT22;11524;50.846;4.326;2022-11-15T11:55:46;20.20;52.50
22714;DHT22;11524;50.846;4.326;2022-11-15T11:58:14;20.20;52.40
22714;DHT22;11524;50.846;4.326;2022-11-15T12:01:11;20.20;52.50
22714;DHT22;11524;50.846;4.326;2022-11-15T12:09:01;20.20;52.60
22714;DHT22;11524;50.846;4.326;2022-11-15T12:17:13;20.20;52.20
22714;DHT22;11524;50.846;4.326;2022-11-15T12:19:40;20.20;52.50
22714;DHT22;11524;50.846;4.326;2022-11-15T12:25:00;20.20;53.10
22714;DHT22;11524;50.846;4.326;2022-11-15T12:30:04;20.20;52.50
22714;DHT22;11524;50.846;4.326;2022-11-15T12:32:37;20.20;52.70
22714;DHT22;11524;50.846;4.326;2022-11-15T12:35:06;20.20;52.50
22714;DHT22;11524;50.846;4.326;2022-11-15T12:37:48;20.20;52.40
22714;DHT22;11524;50.846;4.326;2022-11-15T12:40:23;20.20;52.50
22714;DHT22;11524;50.846;4.326;2022-11-15T12:42:59;20.20;52.60
22714;DHT22;11524;50.846;4.326;2022-11-15T12:45:34;20.20;52.50
22714;DHT22;11524;50.846;4.326;2022-11-15T12:53:25;20.20;52.60
22714;DHT22;11524;50.846;4.326;2022-11-15T12:56:20;20.20;52.60
22714;DHT22;11524;50.846;4.326;2022-11-15T12:58:56;20.20;52.50
22714;DHT22;11524;50.846;4.326;2022-11-15T13:06:52;20.20;52.50
22714;DHT22;11524;50.846;4.326;2022-11-15T13:12:48;20.30;52.70
22714;DHT22;11524;50.846;4.326;2022-11-15T13:15:00;20.30;53.30
22714;DHT22;11524;50.846;4.326;2022-11-15T13:17:47;20.30;52.70
22714;DHT22;11524;50.846;4.326;2022-11-15T13:22:44;20.30;52.80
22714;DHT22;11524;50.846;4.326;2022-11-15T13:25:18;20.30;52.90
22714;DHT22;11524;50.846;4.326;2022-11-15T13:27:47;20.30;53.10
22714;DHT22;11524;50.846;4.326;2022-11-15T13:30:21;20.30;53.80
22714;DHT22;11524;50.846;4.326;2022-11-15T13:32:47;20.30;53.30
22714;DHT22;11524;50.846;4.326;2022-11-15T13:35:26;20.30;53.40
22714;DHT22;11524;50.846;4.326;2022-11-15T13:37:54;20.30;53.30
22714;DHT22;11524;50.846;4.326;2022-11-15T13:40:27;20.30;53.40
22714;DHT22;11524;50.846;4.326;2022-11-15T13:42:56;20.30;53.40
22714;DHT22;11524;50.846;4.326;2022-11-15T13:45:22;20.20;53.50
22714;DHT22;11524;50.846;4.326;2022-11-15T13:47:56;20.20;53.70
22714;DHT22;11524;50.846;4.326;2022-11-15T13:50:26;20.20;53.60
22714;DHT22;11524;50.846;4.326;2022-11-15T13:52:53;20.20;53.90
22714;DHT22;11524;50.846;4.326;2022-11-15T13:55:23;20.30;53.90
22714;DHT22;11524;50.846;4.326;2022-11-15T13:58:01;20.30;53.70
22714;DHT22;11524;50.846;4.326;2022-11-15T14:00:42;20.30;53.80
22714;DHT22;11524;50.846;4.326;2022-11-15T14:08:32;20.30;53.60
22714;DHT22;11524;50.846;4.326;2022-11-15T14:11:15;20.30;53.60
22714;DHT22;11524;50.846;4.326;2022-11-15T14:13:42;20.40;53.80
22714;DHT22;11524;50.846;4.326;2022-11-15T14:16:33;20.40;54.10
22714;DHT22;11524;50.846;4.326;2022-11-15T14:18:59;20.30;53.90
22714;DHT22;11524;50.846;4.326;2022-11-15T14:21:24;20.30;53.60
22714;DHT22;11524;50.846;4.326;2022-11-15T14:23:50;20.30;53.90
22714;DHT22;11524;50.846;4.326;2022-11-15T14:26:31;20.20;54.70
22714;DHT22;11524;50.846;4.326;2022-11-15T14:29:24;20.30;54.60
22714;DHT22;11524;50.846;4.326;2022-11-15T14:31:50;20.40;54.50
22714;DHT22;11524;50.846;4.326;2022-11-15T14:34:16;20.30;55.20
22714;DHT22;11524;50.846;4.326;2022-11-15T14:36:42;20.30;55.00
22714;DHT22;11524;50.846;4.326;2022-11-15T14:39:08;20.30;55.60
22714;DHT22;11524;50.846;4.326;2022-11-15T14:41:37;20.30;55.40
22714;DHT22;11524;50.846;4.326;2022-11-15T14:44:06;20.20;55.20
22714;DHT22;11524;50.846;4.326;2022-11-15T14:46:32;20.20;55.20
22714;DHT22;11524;50.846;4.326;2022-11-15T14:48:57;20.20;55.10
22714;DHT22;11524;50.846;4.326;2022-11-15T14:51:23;20.20;55.50
22714;DHT22;11524;50.846;4.326;2022-11-15T14:53:49;20.20;55.60
22714;DHT22;11524;50.846;4.326;2022-11-15T14:56:15;20.30;55.60
22714;DHT22;11524;50.846;4.326;2022-11-15T14:58:42;20.30;56.10
22714;DHT22;11524;50.846;4.326;2022-11-15T15:01:14;20.40;55.60
22714;DHT22;11524;50.846;4.326;2022-11-15T15:03:41;20.40;55.40
22714;DHT22;11524;50.846;4.326;2022-11-15T15:06:09;20.40;55.10
22714;DHT22;11524;50.846;4.326;2022-11-15T15:08:35;20.40;55.50
22714;DHT22;11524;50.846;4.326;2022-11-15T15:11:00;20.40;55.50
22714;DHT22;11524;50.846;4.326;2022-11-15T15:13:26;20.40;55.40
22714;DHT22;11524;50.846;4.326;2022-11-15T15:15:54;20.50;55.50
22714;DHT22;11524;50.846;4.326;2022-11-15T15:18:20;20.50;55.50
22714;DHT22;11524;50.846;4.326;2022-11-15T15:20:51;20.40;55.60
22714;DHT22;11524;50.846;4.326;2022-11-15T15:23:19;20.40;55.80
22714;DHT22;11524;50.846;4.326;2022-11-15T15:25:47;20.40;55.70
22714;DHT22;11524;50.846;4.326;2022-11-15T15:28:14;20.40;55.70
22714;DHT22;11524;50.846;4.326;2022-11-15T15:30:39;20.40;55.70
22714;DHT22;11524;50.846;4.326;2022-11-15T15:33:05;20.30;56.20
22714;DHT22;11524;50.846;4.326;2022-11-15T15:35:33;20.30;56.60
22714;DHT22;11524;50.846;4.326;2022-11-15T15:37:59;20.30;55.90
22714;DHT22;11524;50.846;4.326;2022-11-15T15:40:26;20.40;55.90
22714;DHT22;11524;50.846;4.326;2022-11-15T15:42:52;20.40;55.80
22714;DHT22;11524;50.846;4.326;2022-11-15T15:45:19;20.40;55.80
22714;DHT22;11524;50.846;4.326;2022-11-15T15:47:45;20.40;55.70
22714;DHT22;11524;50.846;4.326;2022-11-15T15:50:22;20.20;57.00
22714;DHT22;11524;50.846;4.326;2022-11-15T15:52:48;20.20;56.50
22714;DHT22;11524;50.846;4.326;2022-11-15T15:55:14;20.20;56.60
22714;DHT22;11524;50.846;4.326;2022-11-15T15:57:40;20.10;57.00
22714;DHT22;11524;50.846;4.326;2022-11-15T16:00:06;20.00;57.10
22714;DHT22;11524;50.846;4.326;2022-11-15T16:02:32;20.00;57.50
22714;DHT22;11524;50.846;4.326;2022-11-15T16:04:59;20.10;56.80
22714;DHT22;11524;50.846;4.326;2022-11-15T16:07:25;20.10;56.70
22714;DHT22;11524;50.846;4.326;2022-11-15T16:09:51;20.10;56.90
22714;DHT22;11524;50.846;4.326;2022-11-15T16:12:32;20.00;57.50
22714;DHT22;11524;50.846;4.326;2022-11-15T16:15:00;20.00;57.00
22714;DHT22;11524;50.846;4.326;2022-11-15T16:17:31;20.00;57.20
22714;DHT22;11524;50.846;4.326;2022-11-15T16:19:57;20.00;57.40
22714;DHT22;11524;50.846;4.326;2022-11-15T16:22:23;20.00;57.30
22714;DHT22;11524;50.846;4.326;2022-11-15T16:24:48;20.00;57.60
22714;DHT22;11524;50.846;4.326;2022-11-15T16:27:19;20.00;57.80
22714;DHT22;11524;50.846;4.326;2022-11-15T16:29:46;20.00;57.70
22714;DHT22;11524;50.846;4.326;2022-11-15T16:32:12;20.00;57.80
22714;DHT22;11524;50.846;4.326;2022-11-15T16:34:38;20.00;57.90
22714;DHT22;11524;50.846;4.326;2022-11-15T16:37:04;20.00;58.10
22714;DHT22;11524;50.846;4.326;2022-11-15T16:39:30;20.00;58.00
22714;DHT22;11524;50.846;4.326;2022-11-15T16:41:57;20.00;58.20
22714;DHT22;11524;50.846;4.326;2022-11-15T16:44:23;20.00;58.20
22714;DHT22;11524;50.846;4.326;2022-11-15T16:46:49;20.00;58.30
22714;DHT22;11524;50.846;4.326;2022-11-15T16:49:17;20.00;58.30
22714;DHT22;11524;50.846;4.326;2022-11-15T16:51:49;20.00;58.40
22714;DHT22;11524;50.846;4.326;2022-11-15T16:54:26;19.90;58.40
22714;DHT22;11524;50.846;4.326;2022-11-15T16:56:52;19.90;58.20
22714;DHT22;11524;50.846;4.326;2022-11-15T16:59:29;19.90;58.40
22714;DHT22;11524;50.846;4.326;2022-11-15T17:01:57;19.90;58.30
22714;DHT22;11524;50.846;4.326;2022-11-15T17:04:26;19.90;58.40
22714;DHT22;11524;50.846;4.326;2022-11-15T17:06:57;19.90;58.60
22714;DHT22;11524;50.846;4.326;2022-11-15T17:09:22;19.90;58.80
22714;DHT22;11524;50.846;4.326;2022-11-15T17:11:52;19.80;58.80
22714;DHT22;11524;50.846;4.326;2022-11-15T17:14:20;19.80;58.80
22714;DHT22;11524;50.846;4.326;2022-11-15T17:16:46;19.80;58.80
22714;DHT22;11524;50.846;4.326;2022-11-15T17:19:17;19.80;58.60
22714;DHT22;11524;50.846;4.326;2022-11-15T17:21:44;19.80;58.40
22714;DHT22;11524;50.846;4.326;2022-11-15T17:24:10;19.80;58.50
22714;DHT22;11524;50.846;4.326;2022-11-15T17:26:37;19.80;58.50
22714;DHT22;11524;50.846;4.326;2022-11-15T17:29:03;19.90;58.60
22714;DHT22;11524;50.846;4.326;2022-11-15T17:31:33;19.80;58.40
22714;DHT22;11524;50.846;4.326;2022-11-15T17:34:00;19.80;58.40
22714;DHT22;11524;50.846;4.326;2022-11-15T17:36:26;19.90;58.60